createdAt,value
2023-12-29T00:00:30.721Z,0.00
2023-12-29T00:01:30.793Z,0.00
2023-12-29T00:02:30.687Z,0.00
2023-12-29T00:03:30.710Z,0.00
2023-12-29T00:04:30.630Z,0.00
2023-12-29T00:05:30.656Z,0.00
2023-12-29T00:06:30.679Z,0.00
2023-12-29T00:07:30.632Z,0.00
2023-12-29T00:08:30.614Z,0.00
2023-12-29T00:09:30.634Z,0.00
2023-12-29T00:10:30.553Z,0.00
2023-12-29T00:11:30.574Z,0.00
2023-12-29T00:12:30.575Z,0.00
2023-12-29T00:13:30.539Z,0.00
2023-12-29T00:14:30.565Z,0.00
2023-12-29T00:15:30.558Z,0.00
2023-12-29T00:16:30.518Z,0.00
2023-12-29T00:17:30.572Z,0.00
2023-12-29T00:18:30.654Z,0.00
2023-12-29T00:19:30.507Z,0.00
2023-12-29T00:20:38.092Z,0.00
2023-12-29T00:21:31.488Z,0.00
2023-12-29T00:22:31.365Z,0.00
2023-12-29T00:23:30.431Z,0.00
2023-12-29T00:24:30.454Z,0.00
2023-12-29T00:25:30.403Z,0.00
2023-12-29T00:26:30.431Z,0.00
2023-12-29T00:27:30.426Z,0.00
2023-12-29T00:28:30.361Z,0.00
2023-12-29T00:29:30.363Z,0.00
2023-12-29T00:30:43.443Z,0.00
2023-12-29T00:31:31.567Z,0.00
2023-12-29T00:32:30.379Z,0.00
2023-12-29T00:33:31.015Z,0.00
2023-12-29T00:34:30.365Z,0.00
2023-12-29T00:35:30.281Z,0.00
2023-12-29T00:36:30.308Z,0.00
2023-12-29T00:37:30.292Z,0.00
2023-12-29T00:38:30.339Z,0.00
2023-12-29T00:39:30.373Z,0.00
2023-12-29T00:40:30.249Z,0.00
2023-12-29T00:41:30.214Z,0.00
2023-12-29T00:42:30.246Z,0.00
2023-12-29T00:43:30.332Z,0.00
2023-12-29T00:44:30.215Z,0.00
2023-12-29T00:45:30.236Z,0.00
2023-12-29T00:46:30.170Z,0.00
2023-12-29T00:47:30.287Z,0.00
2023-12-29T00:48:30.250Z,0.00
2023-12-29T00:49:30.333Z,0.00
2023-12-29T00:50:30.128Z,0.00
2023-12-29T00:51:30.154Z,0.00
2023-12-29T00:52:30.109Z,0.00
2023-12-29T00:53:30.079Z,0.00
2023-12-29T00:54:30.616Z,0.00
2023-12-29T00:55:30.248Z,0.00
2023-12-29T00:56:30.062Z,0.00
2023-12-29T00:57:30.065Z,0.00
2023-12-29T00:58:30.039Z,0.00
2023-12-29T00:59:30.100Z,0.00
2023-12-29T01:00:30.122Z,0.00
2023-12-29T01:01:30.108Z,0.00
2023-12-29T01:02:29.990Z,0.00
2023-12-29T01:03:30.137Z,0.00
2023-12-29T01:04:30.317Z,0.00
2023-12-29T01:05:29.978Z,0.00
2023-12-29T01:06:30.034Z,0.00
2023-12-29T01:07:29.960Z,0.00
2023-12-29T01:08:29.936Z,0.00
2023-12-29T01:09:29.942Z,0.00
2023-12-29T01:10:29.926Z,0.00
2023-12-29T01:11:29.911Z,0.00
2023-12-29T01:12:29.928Z,0.00
2023-12-29T01:13:29.904Z,0.00
2023-12-29T01:14:30.416Z,0.00
2023-12-29T01:15:29.922Z,0.00
2023-12-29T01:16:29.920Z,0.00
2023-12-29T01:17:30.836Z,0.00
2023-12-29T01:18:29.961Z,0.00
2023-12-29T01:19:29.891Z,0.00
2023-12-29T01:20:29.794Z,0.00
2023-12-29T01:21:29.823Z,0.00
2023-12-29T01:22:29.774Z,0.00
2023-12-29T01:23:29.756Z,0.00
2023-12-29T01:24:36.051Z,0.00
2023-12-29T01:25:30.812Z,0.00
2023-12-29T01:26:29.747Z,0.00
2023-12-29T01:27:29.795Z,0.00
2023-12-29T01:28:29.738Z,0.00
2023-12-29T01:29:29.691Z,0.00
2023-12-29T01:30:29.775Z,0.00
2023-12-29T01:31:29.808Z,0.00
2023-12-29T01:32:29.750Z,0.00
2023-12-29T01:33:29.667Z,0.00
2023-12-29T01:34:29.785Z,0.00
2023-12-29T01:35:29.708Z,0.00
2023-12-29T01:36:29.646Z,0.00
2023-12-29T01:37:29.663Z,0.00
2023-12-29T01:38:29.592Z,0.00
2023-12-29T01:39:29.601Z,0.00
2023-12-29T01:40:30.006Z,0.00
2023-12-29T01:41:29.554Z,0.00
2023-12-29T01:42:29.824Z,0.00
2023-12-29T01:43:29.572Z,0.00
2023-12-29T01:44:29.530Z,0.00
2023-12-29T01:45:29.621Z,0.00
2023-12-29T01:46:29.690Z,0.00
2023-12-29T01:47:29.610Z,0.00
2023-12-29T01:48:29.607Z,0.00
2023-12-29T01:49:29.723Z,0.00
2023-12-29T01:50:29.478Z,0.00
2023-12-29T01:51:29.488Z,0.00
2023-12-29T01:52:29.456Z,0.00
2023-12-29T01:53:35.306Z,0.00
2023-12-29T01:54:30.514Z,0.00
2023-12-29T01:55:29.413Z,0.00
2023-12-29T01:56:29.393Z,0.00
2023-12-29T01:57:29.456Z,0.00
2023-12-29T01:58:29.656Z,0.00
2023-12-29T01:59:29.389Z,0.00
2023-12-29T02:00:29.599Z,0.00
2023-12-29T02:01:29.407Z,0.00
2023-12-29T02:02:29.488Z,0.00
2023-12-29T02:03:29.418Z,0.00
2023-12-29T02:04:29.560Z,0.00
2023-12-29T02:05:29.345Z,0.00
2023-12-29T02:06:29.383Z,0.00
2023-12-29T02:07:29.278Z,0.00
2023-12-29T02:08:29.284Z,0.00
2023-12-29T02:09:29.314Z,0.00
2023-12-29T02:10:29.256Z,0.00
2023-12-29T02:11:29.242Z,0.00
2023-12-29T02:12:29.269Z,0.00
2023-12-29T02:13:29.198Z,0.00
2023-12-29T02:14:29.193Z,0.00
2023-12-29T02:15:29.252Z,0.00
2023-12-29T02:16:29.187Z,0.00
2023-12-29T02:17:29.407Z,0.00
2023-12-29T02:18:29.330Z,0.00
2023-12-29T02:19:29.240Z,0.00
2023-12-29T02:20:29.148Z,0.00
2023-12-29T02:21:29.217Z,0.00
2023-12-29T02:22:29.110Z,0.00
2023-12-29T02:23:29.088Z,0.00
2023-12-29T02:24:30.159Z,0.00
2023-12-29T02:25:29.085Z,0.00
2023-12-29T02:26:29.070Z,0.00
2023-12-29T02:27:29.064Z,0.00
2023-12-29T02:28:29.129Z,0.00
2023-12-29T02:29:29.019Z,0.00
2023-12-29T02:30:29.253Z,0.00
2023-12-29T02:31:29.501Z,0.00
2023-12-29T02:32:29.077Z,0.00
2023-12-29T02:33:29.119Z,0.00
2023-12-29T02:34:29.085Z,0.00
2023-12-29T02:35:29.074Z,0.00
2023-12-29T02:36:30.982Z,0.00
2023-12-29T02:37:29.088Z,0.00
2023-12-29T02:38:29.103Z,0.00
2023-12-29T02:39:28.998Z,0.00
2023-12-29T02:40:28.914Z,0.00
2023-12-29T02:41:28.890Z,0.00
2023-12-29T02:42:28.912Z,0.00
2023-12-29T02:43:28.871Z,0.00
2023-12-29T02:44:28.880Z,0.00
2023-12-29T02:45:28.853Z,0.00
2023-12-29T02:46:28.847Z,0.00
2023-12-29T02:47:28.884Z,0.00
2023-12-29T02:48:28.940Z,0.00
2023-12-29T02:49:28.869Z,0.00
2023-12-29T02:50:28.797Z,0.00
2023-12-29T02:51:28.793Z,0.00
2023-12-29T02:52:28.788Z,0.00
2023-12-29T02:53:28.759Z,0.00
2023-12-29T02:54:28.829Z,0.00
2023-12-29T02:55:28.765Z,0.00
2023-12-29T02:56:29.014Z,0.00
2023-12-29T02:57:28.756Z,0.00
2023-12-29T02:58:28.748Z,0.00
2023-12-29T02:59:28.694Z,0.00
2023-12-29T03:00:28.749Z,0.00
2023-12-29T03:01:28.772Z,0.00
2023-12-29T03:02:28.682Z,0.00
2023-12-29T03:03:28.675Z,0.00
2023-12-29T03:04:28.731Z,0.00
2023-12-29T03:05:28.670Z,0.00
2023-12-29T03:06:28.683Z,0.00
2023-12-29T03:07:28.620Z,0.00
2023-12-29T03:08:28.630Z,0.00
2023-12-29T03:09:28.597Z,0.00
2023-12-29T03:10:28.599Z,0.00
2023-12-29T03:11:28.562Z,0.00
2023-12-29T03:12:30.103Z,0.00
2023-12-29T03:13:28.563Z,0.00
2023-12-29T03:14:28.556Z,0.00
2023-12-29T03:15:28.537Z,0.00
2023-12-29T03:16:28.525Z,0.00
2023-12-29T03:17:28.592Z,0.00
2023-12-29T03:18:28.645Z,0.00
2023-12-29T03:19:29.653Z,0.00
2023-12-29T03:20:28.505Z,0.00
2023-12-29T03:21:28.553Z,0.00
2023-12-29T03:22:28.628Z,0.00
2023-12-29T03:23:28.439Z,0.00
2023-12-29T03:24:29.485Z,0.00
2023-12-29T03:25:28.434Z,0.00
2023-12-29T03:26:28.590Z,0.00
2023-12-29T03:27:28.395Z,0.00
2023-12-29T03:28:28.406Z,0.00
2023-12-29T03:29:28.384Z,0.00
2023-12-29T03:30:28.436Z,0.00
2023-12-29T03:31:28.511Z,0.00
2023-12-29T03:32:28.364Z,0.00
2023-12-29T03:33:28.399Z,0.00
2023-12-29T03:34:28.413Z,0.00
2023-12-29T03:35:28.288Z,0.00
2023-12-29T03:36:28.339Z,0.00
2023-12-29T03:37:28.280Z,0.00
2023-12-29T03:38:28.278Z,0.00
2023-12-29T03:39:28.262Z,0.00
2023-12-29T03:40:28.282Z,0.00
2023-12-29T03:41:28.260Z,0.00
2023-12-29T03:42:28.273Z,0.00
2023-12-29T03:43:28.497Z,0.00
2023-12-29T03:44:28.227Z,0.00
2023-12-29T03:45:28.193Z,0.00
2023-12-29T03:46:28.206Z,0.00
2023-12-29T03:47:28.218Z,0.00
2023-12-29T03:48:28.312Z,0.00
2023-12-29T03:49:28.197Z,0.00
2023-12-29T03:50:28.162Z,0.00
2023-12-29T03:51:28.193Z,0.00
2023-12-29T03:52:28.137Z,0.00
2023-12-29T03:53:28.200Z,0.00
2023-12-29T03:54:28.137Z,0.00
2023-12-29T03:55:28.139Z,0.00
2023-12-29T03:56:28.082Z,0.00
2023-12-29T03:57:28.060Z,0.00
2023-12-29T03:58:28.057Z,0.00
2023-12-29T03:59:28.042Z,0.00
2023-12-29T04:00:28.124Z,0.00
2023-12-29T04:01:29.415Z,0.00
2023-12-29T04:02:28.021Z,0.00
2023-12-29T04:03:28.005Z,0.00
2023-12-29T04:04:28.105Z,0.00
2023-12-29T04:05:27.982Z,0.00
2023-12-29T04:06:28.013Z,0.00
2023-12-29T04:07:27.960Z,0.00
2023-12-29T04:08:27.953Z,0.00
2023-12-29T04:09:27.926Z,0.00
2023-12-29T04:10:27.924Z,0.00
2023-12-29T04:11:27.904Z,0.00
2023-12-29T04:12:28.064Z,0.00
2023-12-29T04:13:27.880Z,0.00
2023-12-29T04:14:27.900Z,0.00
2023-12-29T04:15:27.863Z,0.00
2023-12-29T04:16:27.865Z,0.00
2023-12-29T04:17:27.906Z,0.00
2023-12-29T04:18:27.979Z,0.00
2023-12-29T04:19:28.024Z,0.00
2023-12-29T04:20:27.830Z,0.00
2023-12-29T04:21:27.797Z,0.00
2023-12-29T04:22:27.843Z,0.00
2023-12-29T04:23:27.797Z,0.00
2023-12-29T04:24:27.817Z,0.00
2023-12-29T04:25:28.722Z,0.00
2023-12-29T04:26:27.754Z,0.00
2023-12-29T04:27:27.778Z,0.00
2023-12-29T04:28:27.749Z,0.00
2023-12-29T04:29:27.724Z,0.00
2023-12-29T04:30:27.762Z,0.00
2023-12-29T04:31:27.695Z,0.00
2023-12-29T04:32:27.718Z,0.00
2023-12-29T04:33:27.695Z,0.00
2023-12-29T04:34:27.732Z,0.00
2023-12-29T04:35:27.642Z,0.00
2023-12-29T04:36:27.673Z,0.00
2023-12-29T04:37:27.627Z,0.00
2023-12-29T04:38:27.621Z,0.00
2023-12-29T04:39:27.605Z,0.00
2023-12-29T04:40:27.598Z,0.00
2023-12-29T04:41:27.573Z,0.00
2023-12-29T04:42:27.615Z,0.00
2023-12-29T04:43:27.555Z,0.00
2023-12-29T04:44:27.551Z,0.00
2023-12-29T04:45:27.531Z,0.00
2023-12-29T04:46:27.523Z,0.00
2023-12-29T04:47:27.542Z,0.00
2023-12-29T04:48:27.561Z,0.00
2023-12-29T04:49:27.613Z,0.00
2023-12-29T04:50:27.513Z,0.00
2023-12-29T04:51:27.484Z,0.00
2023-12-29T04:52:27.474Z,0.00
2023-12-29T04:53:27.472Z,0.00
2023-12-29T04:54:27.475Z,0.00
2023-12-29T04:55:27.472Z,0.00
2023-12-29T04:56:27.625Z,0.00
2023-12-29T04:57:27.416Z,0.00
2023-12-29T04:58:27.421Z,0.00
2023-12-29T04:59:27.401Z,0.00
2023-12-29T05:00:27.572Z,0.00
2023-12-29T05:01:27.444Z,0.00
2023-12-29T05:02:27.366Z,0.00
2023-12-29T05:03:27.374Z,0.00
2023-12-29T05:04:27.353Z,0.00
2023-12-29T05:05:27.334Z,0.00
2023-12-29T05:06:27.352Z,0.00
2023-12-29T05:07:27.317Z,0.00
2023-12-29T05:08:27.291Z,0.00
2023-12-29T05:09:27.286Z,0.00
2023-12-29T05:10:27.262Z,0.00
2023-12-29T05:11:27.284Z,0.00
2023-12-29T05:12:27.273Z,0.00
2023-12-29T05:13:27.242Z,0.00
2023-12-29T05:14:27.221Z,0.00
2023-12-29T05:15:27.212Z,0.00
2023-12-29T05:16:27.200Z,0.00
2023-12-29T05:17:27.267Z,0.00
2023-12-29T05:18:27.503Z,0.00
2023-12-29T05:19:27.228Z,0.00
2023-12-29T05:20:27.150Z,0.00
2023-12-29T05:21:27.164Z,0.00
2023-12-29T05:22:27.135Z,0.00
2023-12-29T05:23:27.160Z,0.00
2023-12-29T05:24:27.146Z,0.00
2023-12-29T05:25:27.113Z,0.00
2023-12-29T05:26:27.072Z,0.00
2023-12-29T05:27:27.077Z,0.00
2023-12-29T05:28:27.095Z,0.00
2023-12-29T05:29:27.083Z,0.00
2023-12-29T05:30:27.103Z,0.00
2023-12-29T05:31:27.048Z,0.00
2023-12-29T05:32:27.094Z,0.00
2023-12-29T05:33:27.091Z,0.00
2023-12-29T05:34:27.081Z,0.00
2023-12-29T05:35:26.988Z,0.00
2023-12-29T05:36:27.048Z,0.00
2023-12-29T05:37:27.062Z,0.00
2023-12-29T05:38:27.017Z,0.00
2023-12-29T05:39:26.950Z,0.00
2023-12-29T05:40:26.943Z,0.00
2023-12-29T05:41:26.956Z,0.00
2023-12-29T05:42:26.955Z,0.00
2023-12-29T05:43:26.937Z,0.00
2023-12-29T05:44:26.893Z,0.00
2023-12-29T05:45:26.904Z,0.00
2023-12-29T05:46:26.883Z,0.00
2023-12-29T05:47:26.968Z,0.00
2023-12-29T05:48:27.069Z,0.00
2023-12-29T05:49:26.932Z,0.00
2023-12-29T05:50:26.825Z,0.00
2023-12-29T05:51:26.816Z,0.00
2023-12-29T05:52:26.813Z,0.00
2023-12-29T05:53:26.834Z,0.00
2023-12-29T05:54:26.827Z,0.00
2023-12-29T05:55:26.839Z,0.00
2023-12-29T05:56:26.757Z,0.00
2023-12-29T05:57:26.790Z,0.00
2023-12-29T05:58:26.748Z,0.00
2023-12-29T05:59:26.744Z,0.00
2023-12-29T06:00:27.774Z,0.00
2023-12-29T06:01:26.847Z,0.00
2023-12-29T06:02:26.901Z,0.00
2023-12-29T06:03:26.743Z,0.00
2023-12-29T06:04:26.701Z,0.00
2023-12-29T06:05:26.706Z,0.00
2023-12-29T06:06:26.688Z,0.00
2023-12-29T06:07:26.658Z,0.00
2023-12-29T06:08:26.637Z,0.00
2023-12-29T06:09:26.630Z,0.00
2023-12-29T06:10:26.642Z,0.00
2023-12-29T06:11:26.625Z,0.00
2023-12-29T06:12:26.658Z,0.00
2023-12-29T06:13:26.595Z,0.00
2023-12-29T06:14:26.613Z,0.00
2023-12-29T06:15:26.584Z,0.00
2023-12-29T06:16:26.551Z,0.00
2023-12-29T06:17:26.585Z,0.00
2023-12-29T06:18:26.657Z,0.00
2023-12-29T06:19:26.603Z,0.00
2023-12-29T06:20:26.500Z,0.00
2023-12-29T06:21:26.506Z,0.00
2023-12-29T06:22:26.485Z,0.00
2023-12-29T06:23:26.482Z,0.00
2023-12-29T06:24:26.486Z,0.00
2023-12-29T06:25:26.482Z,0.00
2023-12-29T06:26:26.441Z,0.00
2023-12-29T06:27:26.442Z,0.00
2023-12-29T06:28:26.521Z,0.00
2023-12-29T06:29:26.421Z,0.00
2023-12-29T06:30:26.472Z,0.00
2023-12-29T06:31:26.500Z,0.00
2023-12-29T06:32:26.411Z,0.00
2023-12-29T06:33:26.418Z,0.00
2023-12-29T06:34:26.576Z,0.00
2023-12-29T06:35:26.373Z,0.00
2023-12-29T06:36:26.400Z,0.00
2023-12-29T06:37:26.354Z,0.00
2023-12-29T06:38:26.308Z,0.00
2023-12-29T06:39:26.428Z,0.00
2023-12-29T06:40:26.440Z,0.00
2023-12-29T06:41:26.405Z,0.00
2023-12-29T06:42:26.312Z,0.00
2023-12-29T06:43:26.261Z,0.00
2023-12-29T06:44:26.248Z,0.00
2023-12-29T06:45:26.279Z,0.00
2023-12-29T06:46:26.218Z,0.00
2023-12-29T06:47:26.261Z,0.00
2023-12-29T06:48:26.329Z,0.00
2023-12-29T06:49:26.432Z,0.00
2023-12-29T06:50:26.171Z,0.00
2023-12-29T06:51:27.144Z,0.00
2023-12-29T06:52:26.175Z,0.00
2023-12-29T06:53:26.162Z,0.00
2023-12-29T06:54:26.167Z,0.00
2023-12-29T06:55:26.171Z,0.00
2023-12-29T06:56:26.109Z,0.00
2023-12-29T06:57:26.101Z,0.00
2023-12-29T06:58:26.168Z,0.00
2023-12-29T06:59:26.088Z,0.00
2023-12-29T07:00:26.196Z,0.00
2023-12-29T07:01:27.087Z,0.00
2023-12-29T07:02:27.084Z,0.00
2023-12-29T07:03:27.131Z,0.00
2023-12-29T07:04:26.065Z,0.00
2023-12-29T07:05:26.071Z,0.00
2023-12-29T07:06:26.075Z,0.00
2023-12-29T07:07:26.056Z,0.00
2023-12-29T07:08:26.042Z,0.00
2023-12-29T07:09:26.350Z,0.00
2023-12-29T07:10:26.028Z,0.00
2023-12-29T07:11:25.962Z,0.00
2023-12-29T07:12:25.975Z,0.00
2023-12-29T07:13:25.940Z,0.00
2023-12-29T07:14:25.908Z,0.00
2023-12-29T07:15:25.926Z,0.00
2023-12-29T07:16:26.012Z,0.00
2023-12-29T07:17:25.966Z,0.00
2023-12-29T07:18:26.026Z,0.00
2023-12-29T07:19:26.352Z,0.00
2023-12-29T07:20:25.991Z,0.00
2023-12-29T07:21:25.929Z,0.00
2023-12-29T07:22:25.897Z,0.00
2023-12-29T07:23:26.064Z,0.00
2023-12-29T07:24:25.842Z,0.00
2023-12-29T07:25:25.872Z,0.00
2023-12-29T07:26:26.006Z,0.00
2023-12-29T07:27:25.784Z,0.00
2023-12-29T07:28:25.873Z,0.00
2023-12-29T07:29:25.767Z,0.00
2023-12-29T07:30:25.927Z,0.00
2023-12-29T07:31:25.757Z,0.00
2023-12-29T07:32:25.777Z,0.00
2023-12-29T07:33:25.807Z,0.00
2023-12-29T07:34:25.967Z,0.00
2023-12-29T07:35:25.762Z,0.00
2023-12-29T07:36:25.704Z,0.00
2023-12-29T07:37:25.803Z,0.00
2023-12-29T07:38:25.695Z,0.00
2023-12-29T07:39:25.672Z,0.00
2023-12-29T07:40:25.791Z,0.00
2023-12-29T07:41:25.642Z,0.00
2023-12-29T07:42:25.629Z,0.00
2023-12-29T07:43:25.593Z,5.62
2023-12-29T07:44:25.588Z,5.62
2023-12-29T07:45:25.592Z,5.62
2023-12-29T07:46:25.604Z,5.62
2023-12-29T07:47:25.567Z,5.62
2023-12-29T07:48:25.679Z,5.62
2023-12-29T07:49:25.621Z,5.62
2023-12-29T07:50:25.525Z,5.62
2023-12-29T07:51:25.524Z,5.62
2023-12-29T07:52:25.597Z,11.25
2023-12-29T07:53:25.508Z,11.25
2023-12-29T07:54:25.547Z,11.25
2023-12-29T07:55:25.493Z,11.25
2023-12-29T07:56:25.449Z,11.25
2023-12-29T07:57:25.454Z,11.25
2023-12-29T07:58:25.501Z,11.25
2023-12-29T07:59:25.430Z,11.25
2023-12-29T08:00:25.488Z,11.25
2023-12-29T08:01:25.551Z,11.25
2023-12-29T08:02:25.456Z,11.25
2023-12-29T08:03:25.496Z,16.88
2023-12-29T08:04:25.481Z,16.88
2023-12-29T08:05:25.393Z,16.88
2023-12-29T08:06:25.376Z,16.88
2023-12-29T08:07:25.498Z,16.88
2023-12-29T08:08:25.321Z,16.88
2023-12-29T08:09:25.319Z,16.88
2023-12-29T08:10:25.450Z,22.50
2023-12-29T08:11:25.306Z,22.50
2023-12-29T08:12:25.303Z,22.50
2023-12-29T08:13:25.304Z,22.50
2023-12-29T08:14:25.249Z,22.50
2023-12-29T08:15:25.257Z,22.50
2023-12-29T08:16:25.268Z,22.50
2023-12-29T08:17:25.264Z,22.50
2023-12-29T08:18:25.371Z,28.12
2023-12-29T08:19:25.352Z,28.12
2023-12-29T08:20:25.262Z,28.12
2023-12-29T08:21:25.206Z,28.12
2023-12-29T08:22:25.178Z,28.12
2023-12-29T08:23:25.178Z,33.75
2023-12-29T08:24:25.183Z,33.75
2023-12-29T08:25:25.152Z,39.38
2023-12-29T08:26:25.157Z,39.38
2023-12-29T08:27:25.153Z,45.00
2023-12-29T08:28:25.155Z,50.62
2023-12-29T08:29:25.133Z,50.62
2023-12-29T08:30:25.126Z,50.62
2023-12-29T08:31:25.229Z,50.62
2023-12-29T08:32:25.061Z,50.62
2023-12-29T08:33:25.073Z,50.62
2023-12-29T08:34:27.592Z,45.00
2023-12-29T08:35:25.042Z,45.00
2023-12-29T08:36:25.033Z,39.38
2023-12-29T08:37:25.025Z,33.75
2023-12-29T08:38:24.984Z,33.75
2023-12-29T08:39:25.005Z,33.75
2023-12-29T08:40:25.049Z,33.75
2023-12-29T08:41:24.964Z,33.75
2023-12-29T08:42:25.000Z,28.12
2023-12-29T08:43:24.946Z,28.12
2023-12-29T08:44:24.930Z,22.50
2023-12-29T08:45:24.931Z,22.50
2023-12-29T08:46:24.950Z,22.50
2023-12-29T08:47:24.936Z,16.88
2023-12-29T08:48:25.019Z,16.88
2023-12-29T08:49:25.015Z,22.50
2023-12-29T08:50:24.882Z,22.50
2023-12-29T08:51:24.861Z,22.50
2023-12-29T08:52:24.860Z,22.50
2023-12-29T08:53:24.823Z,16.88
2023-12-29T08:54:24.866Z,16.88
2023-12-29T08:55:24.811Z,16.88
2023-12-29T08:56:28.864Z,16.88
2023-12-29T08:57:24.814Z,16.88
2023-12-29T08:58:24.821Z,22.50
2023-12-29T08:59:24.952Z,28.12
2023-12-29T09:00:24.791Z,22.50
2023-12-29T09:01:24.859Z,22.50
2023-12-29T09:02:24.817Z,28.12
2023-12-29T09:03:24.789Z,28.12
2023-12-29T09:04:24.862Z,28.12
2023-12-29T09:05:24.709Z,28.12
2023-12-29T09:06:24.874Z,28.12
2023-12-29T09:07:24.720Z,28.12
2023-12-29T09:08:24.709Z,28.12
2023-12-29T09:09:24.659Z,22.50
2023-12-29T09:10:25.173Z,28.12
2023-12-29T09:11:24.626Z,33.75
2023-12-29T09:12:24.652Z,33.75
2023-12-29T09:13:24.620Z,28.12
2023-12-29T09:14:24.677Z,28.12
2023-12-29T09:15:24.574Z,22.50
2023-12-29T09:16:24.665Z,22.50
2023-12-29T09:17:24.615Z,22.50
2023-12-29T09:18:24.676Z,22.50
2023-12-29T09:19:31.527Z,28.12
2023-12-29T09:20:25.717Z,28.12
2023-12-29T09:21:24.509Z,22.50
2023-12-29T09:22:24.530Z,22.50
2023-12-29T09:23:24.503Z,22.50
2023-12-29T09:24:24.578Z,28.12
2023-12-29T09:25:24.687Z,28.12
2023-12-29T09:26:24.485Z,33.75
2023-12-29T09:27:24.454Z,33.75
2023-12-29T09:28:24.564Z,39.38
2023-12-29T09:29:24.441Z,45.00
2023-12-29T09:30:24.477Z,50.62
2023-12-29T09:31:24.512Z,50.62
2023-12-29T09:32:24.469Z,61.88
2023-12-29T09:33:24.414Z,67.50
2023-12-29T09:34:24.494Z,78.75
2023-12-29T09:35:24.416Z,84.38
2023-12-29T09:36:24.400Z,84.38
2023-12-29T09:37:24.435Z,84.38
2023-12-29T09:38:24.360Z,73.12
2023-12-29T09:39:24.350Z,78.75
2023-12-29T09:40:24.398Z,78.75
2023-12-29T09:41:24.308Z,84.38
2023-12-29T09:42:24.476Z,78.75
2023-12-29T09:43:24.318Z,73.12
2023-12-29T09:44:24.282Z,56.25
2023-12-29T09:45:24.274Z,50.62
2023-12-29T09:46:24.412Z,45.00
2023-12-29T09:47:24.251Z,33.75
2023-12-29T09:48:24.406Z,39.38
2023-12-29T09:49:24.276Z,45.00
2023-12-29T09:50:24.326Z,39.38
2023-12-29T09:51:24.222Z,39.38
2023-12-29T09:52:24.232Z,56.25
2023-12-29T09:53:24.186Z,67.50
2023-12-29T09:54:24.196Z,73.12
2023-12-29T09:55:24.157Z,84.38
2023-12-29T09:56:24.145Z,90.00
2023-12-29T09:57:24.150Z,123.75
2023-12-29T09:58:24.176Z,146.25
2023-12-29T09:59:24.113Z,140.62
2023-12-29T10:00:24.444Z,123.75
2023-12-29T10:01:25.181Z,106.88
2023-12-29T10:02:24.087Z,90.00
2023-12-29T10:03:24.105Z,84.38
2023-12-29T10:04:24.121Z,84.38
2023-12-29T10:05:24.105Z,112.50
2023-12-29T10:06:24.081Z,112.50
2023-12-29T10:07:24.096Z,129.38
2023-12-29T10:08:24.021Z,135.00
2023-12-29T10:09:24.005Z,123.75
2023-12-29T10:10:24.063Z,123.75
2023-12-29T10:11:23.996Z,118.12
2023-12-29T10:12:24.968Z,129.38
2023-12-29T10:13:24.726Z,118.12
2023-12-29T10:14:23.954Z,118.12
2023-12-29T10:15:23.937Z,135.00
2023-12-29T10:16:23.984Z,140.62
2023-12-29T10:17:23.923Z,123.75
2023-12-29T10:18:25.735Z,95.62
2023-12-29T10:19:24.036Z,95.62
2023-12-29T10:20:23.969Z,95.62
2023-12-29T10:21:23.872Z,123.75
2023-12-29T10:22:23.923Z,135.00
2023-12-29T10:23:23.923Z,129.38
2023-12-29T10:24:23.876Z,106.88
2023-12-29T10:25:23.903Z,123.75
2023-12-29T10:26:23.854Z,135.00
2023-12-29T10:27:23.813Z,157.50
2023-12-29T10:28:23.844Z,157.50
2023-12-29T10:29:23.792Z,123.75
2023-12-29T10:30:28.719Z,112.50
2023-12-29T10:31:24.812Z,118.12
2023-12-29T10:32:23.830Z,135.00
2023-12-29T10:33:23.823Z,157.50
2023-12-29T10:34:23.812Z,163.12
2023-12-29T10:35:26.094Z,180.00
2023-12-29T10:36:23.740Z,180.00
2023-12-29T10:37:23.759Z,151.88
2023-12-29T10:38:23.695Z,168.75
2023-12-29T10:39:23.658Z,163.12
2023-12-29T10:40:23.698Z,157.50
2023-12-29T10:41:23.666Z,151.88
2023-12-29T10:42:23.716Z,146.25
2023-12-29T10:43:24.340Z,129.38
2023-12-29T10:44:23.635Z,140.62
2023-12-29T10:45:23.605Z,135.00
2023-12-29T10:46:23.697Z,135.00
2023-12-29T10:47:23.671Z,140.62
2023-12-29T10:48:24.129Z,140.62
2023-12-29T10:49:23.628Z,146.25
2023-12-29T10:50:23.562Z,163.12
2023-12-29T10:51:23.536Z,196.88
2023-12-29T10:52:23.573Z,202.50
2023-12-29T10:53:23.727Z,213.75
2023-12-29T10:54:23.594Z,208.12
2023-12-29T10:55:23.593Z,196.88
2023-12-29T10:56:23.696Z,185.62
2023-12-29T10:57:23.492Z,185.62
2023-12-29T10:58:23.501Z,202.50
2023-12-29T10:59:23.441Z,191.25
2023-12-29T11:00:24.082Z,174.38
2023-12-29T11:01:23.464Z,196.88
2023-12-29T11:02:23.440Z,191.25
2023-12-29T11:03:23.409Z,208.12
2023-12-29T11:04:23.626Z,185.62
2023-12-29T11:05:23.436Z,168.75
2023-12-29T11:06:23.423Z,180.00
2023-12-29T11:07:23.392Z,180.00
2023-12-29T11:08:23.396Z,180.00
2023-12-29T11:09:23.338Z,196.88
2023-12-29T11:10:23.508Z,185.62
2023-12-29T11:11:23.316Z,168.75
2023-12-29T11:12:23.355Z,163.12
2023-12-29T11:13:23.356Z,151.88
2023-12-29T11:14:23.299Z,146.25
2023-12-29T11:15:23.358Z,129.38
2023-12-29T11:16:23.367Z,135.00
2023-12-29T11:17:23.261Z,151.88
2023-12-29T11:18:23.977Z,174.38
2023-12-29T11:19:23.311Z,196.88
2023-12-29T11:20:23.229Z,191.25
2023-12-29T11:21:23.236Z,163.12
2023-12-29T11:22:23.317Z,157.50
2023-12-29T11:23:23.219Z,168.75
2023-12-29T11:24:30.872Z,157.50
2023-12-29T11:25:24.279Z,129.38
2023-12-29T11:26:23.182Z,140.62
2023-12-29T11:27:23.215Z,129.38
2023-12-29T11:28:23.234Z,129.38
2023-12-29T11:29:23.133Z,157.50
2023-12-29T11:30:23.242Z,180.00
2023-12-29T11:31:23.287Z,191.25
2023-12-29T11:32:23.178Z,196.88
2023-12-29T11:33:23.170Z,213.75
2023-12-29T11:34:24.156Z,213.75
2023-12-29T11:35:23.048Z,180.00
2023-12-29T11:36:30.826Z,185.62
2023-12-29T11:37:24.072Z,191.25
2023-12-29T11:38:23.030Z,180.00
2023-12-29T11:39:23.021Z,140.62
2023-12-29T11:40:23.094Z,118.12
2023-12-29T11:41:23.022Z,129.38
2023-12-29T11:42:23.056Z,112.50
2023-12-29T11:43:23.037Z,84.38
2023-12-29T11:44:23.023Z,67.50
2023-12-29T11:45:22.943Z,61.88
2023-12-29T11:46:23.639Z,67.50
2023-12-29T11:47:22.955Z,84.38
2023-12-29T11:48:22.999Z,90.00
2023-12-29T11:49:22.993Z,101.25
2023-12-29T11:50:22.894Z,112.50
2023-12-29T11:51:22.877Z,106.88
2023-12-29T11:52:22.904Z,118.12
2023-12-29T11:53:22.865Z,118.12
2023-12-29T11:54:22.901Z,123.75
2023-12-29T11:55:23.035Z,146.25
2023-12-29T11:56:22.806Z,157.50
2023-12-29T11:57:22.797Z,163.12
2023-12-29T11:58:22.904Z,191.25
2023-12-29T11:59:22.808Z,230.62
2023-12-29T12:00:23.832Z,281.25
2023-12-29T12:01:22.836Z,286.88
2023-12-29T12:02:22.764Z,281.25
2023-12-29T12:03:22.761Z,286.88
2023-12-29T12:04:22.779Z,326.25
2023-12-29T12:05:22.790Z,320.62
2023-12-29T12:06:22.795Z,298.12
2023-12-29T12:07:22.752Z,292.50
2023-12-29T12:08:22.705Z,275.62
2023-12-29T12:09:22.699Z,258.75
2023-12-29T12:10:22.744Z,247.50
2023-12-29T12:11:22.658Z,219.38
2023-12-29T12:12:22.690Z,180.00
2023-12-29T12:13:22.636Z,163.12
2023-12-29T12:14:23.221Z,168.75
2023-12-29T12:15:22.618Z,168.75
2023-12-29T12:16:22.659Z,174.38
2023-12-29T12:17:22.619Z,196.88
2023-12-29T12:18:23.667Z,168.75
2023-12-29T12:19:22.622Z,174.38
2023-12-29T12:20:22.580Z,191.25
2023-12-29T12:21:22.566Z,174.38
2023-12-29T12:22:22.676Z,168.75
2023-12-29T12:23:22.530Z,174.38
2023-12-29T12:24:22.559Z,163.12
2023-12-29T12:25:22.617Z,146.25
2023-12-29T12:26:22.509Z,140.62
2023-12-29T12:27:22.526Z,129.38
2023-12-29T12:28:22.576Z,123.75
2023-12-29T12:29:22.469Z,129.38
2023-12-29T12:30:22.538Z,118.12
2023-12-29T12:31:22.509Z,123.75
2023-12-29T12:32:22.457Z,123.75
2023-12-29T12:33:22.504Z,123.75
2023-12-29T12:34:24.489Z,140.62
2023-12-29T12:35:23.345Z,174.38
2023-12-29T12:36:22.550Z,208.12
2023-12-29T12:37:22.408Z,236.25
2023-12-29T12:38:22.388Z,241.88
2023-12-29T12:39:22.354Z,315.00
2023-12-29T12:40:22.416Z,326.25
2023-12-29T12:41:22.349Z,365.62
2023-12-29T12:42:22.564Z,382.50
2023-12-29T12:43:22.390Z,405.00
2023-12-29T12:44:22.304Z,410.62
2023-12-29T12:45:22.305Z,382.50
2023-12-29T12:46:22.374Z,416.25
2023-12-29T12:47:22.313Z,376.88
2023-12-29T12:48:22.382Z,433.12
2023-12-29T12:49:22.353Z,866.25
2023-12-29T12:50:22.264Z,736.88
2023-12-29T12:51:22.227Z,950.62
2023-12-29T12:52:23.292Z,1175.62
2023-12-29T12:53:22.296Z,1344.38
2023-12-29T12:54:22.241Z,1153.12
2023-12-29T12:55:22.243Z,1102.50
2023-12-29T12:56:22.171Z,1209.38
2023-12-29T12:57:22.225Z,1203.75
2023-12-29T12:58:22.727Z,894.38
2023-12-29T12:59:22.155Z,821.25
2023-12-29T13:00:22.160Z,759.38
2023-12-29T13:01:22.190Z,669.38
2023-12-29T13:02:22.094Z,511.88